Time;durP1;ratioP1;P1;durP2;ratioP2;P2;SDS_P1;SDS_P2;PMS_P1;PMS_P2;Temp;Humidity;BMP_temperature;BMP_pressure;BME280_temperature;BME280_humidity;BME280_pressure;Samples;Min_cycle;Max_cycle;Signal;HPM_P1;HPM_P2
2022/03/18 00:00:20;;;;;;;10.47;5.93;;;2.50;99.90;;;;;;4808497;29;20098;-88
2022/03/18 00:02:46;;;;;;;12.00;6.13;;;2.50;99.90;;;;;;4823184;29;20053;-87
2022/03/18 00:05:12;;;;;;;13.97;5.90;;;2.50;99.90;;;;;;4806922;29;20050;-87
2022/03/18 00:07:39;;;;;;;15.70;6.97;;;2.40;99.90;;;;;;4822846;29;20049;-87
2022/03/18 00:10:07;;;;;;;12.33;5.90;;;2.50;99.90;;;;;;4811205;29;20132;-88
2022/03/18 00:12:33;;;;;;;14.83;6.00;;;2.50;99.90;;;;;;4811440;29;20387;-87
2022/03/18 00:14:59;;;;;;;11.83;5.20;;;2.50;99.90;;;;;;4835932;29;20056;-87
2022/03/18 00:17:25;;;;;;;8.43;4.33;;;2.40;99.90;;;;;;4811547;29;20045;-88
2022/03/18 00:19:51;;;;;;;14.73;4.70;;;2.40;99.90;;;;;;4812874;29;20049;-87
2022/03/18 00:22:18;;;;;;;12.20;4.77;;;2.30;99.90;;;;;;4811238;29;20402;-87
2022/03/18 00:24:44;;;;;;;9.77;4.60;;;2.40;99.90;;;;;;4809610;29;20054;-87
2022/03/18 00:27:12;;;;;;;10.47;4.67;;;2.40;99.90;;;;;;4811250;29;20084;-87
2022/03/18 00:29:37;;;;;;;11.07;4.63;;;2.30;99.90;;;;;;4826058;29;20077;-87
2022/03/18 00:32:04;;;;;;;12.20;5.03;;;2.30;99.90;;;;;;4808534;29;20069;-88
2022/03/18 00:34:30;;;;;;;11.10;5.13;;;2.30;99.90;;;;;;4804665;29;20102;-88
2022/03/18 00:36:56;;;;;;;11.77;4.60;;;2.30;99.90;;;;;;4810593;29;20045;-87
2022/03/18 00:39:22;;;;;;;13.93;5.43;;;2.30;99.90;;;;;;4800019;29;20038;-88
2022/03/18 00:41:48;;;;;;;12.13;5.17;;;2.40;99.90;;;;;;4808078;29;20053;-87
2022/03/18 00:44:14;;;;;;;10.00;4.67;;;2.40;99.90;;;;;;4811672;29;20145;-88
2022/03/18 00:46:43;;;;;;;13.43;4.87;;;2.30;99.90;;;;;;4825876;29;20059;-87
2022/03/18 00:52:04;;;;;;;13.63;4.60;;;2.30;99.90;;;;;;4822605;29;20054;-87
2022/03/18 00:54:35;;;;;;;12.23;4.97;;;2.30;99.90;;;;;;4788738;29;20129;-87
2022/03/18 00:57:04;;;;;;;16.83;6.10;;;2.30;99.90;;;;;;4826594;29;20046;-87
2022/03/18 00:59:30;;;;;;;14.20;5.70;;;2.30;99.90;;;;;;4810466;29;20129;-87
2022/03/18 01:01:57;;;;;;;11.57;5.47;;;2.20;99.90;;;;;;4810853;29;20057;-88
2022/03/18 01:04:25;;;;;;;13.63;5.43;;;2.30;99.90;;;;;;4823494;29;20495;-88
2022/03/18 01:06:52;;;;;;;17.63;6.23;;;2.30;99.90;;;;;;4812918;29;20073;-88
2022/03/18 01:09:20;;;;;;;11.87;5.70;;;2.20;99.90;;;;;;4813132;29;20085;-88
2022/03/18 01:11:46;;;;;;;12.90;6.00;;;2.20;99.90;;;;;;4810536;29;20106;-88
2022/03/18 01:14:12;;;;;;;12.50;5.90;;;2.10;99.90;;;;;;4810272;29;20038;-88
2022/03/18 01:16:38;;;;;;;13.10;5.60;;;2.10;99.90;;;;;;4825403;29;20041;-87
2022/03/18 01:19:04;;;;;;;21.97;6.40;;;2.10;99.90;;;;;;4825405;29;20546;-88
2022/03/18 01:21:30;;;;;;;16.47;6.83;;;2.00;99.90;;;;;;4810382;29;20056;-88
2022/03/18 01:23:57;;;;;;;20.93;8.03;;;2.10;99.90;;;;;;4812592;29;20094;-88
2022/03/18 01:26:24;;;;;;;17.73;7.33;;;2.10;99.90;;;;;;4825121;29;20058;-88
2022/03/18 01:28:51;;;;;;;15.77;6.70;;;2.10;99.90;;;;;;4809660;29;20497;-87
2022/03/18 01:31:17;;;;;;;20.87;7.00;;;2.10;99.90;;;;;;4795556;29;20410;-88
2022/03/18 01:33:42;;;;;;;10.23;6.37;;;2.10;99.90;;;;;;4780092;29;20045;-88
2022/03/18 01:36:08;;;;;;;14.67;6.10;;;2.10;99.90;;;;;;4791987;29;20050;-87
2022/03/18 01:38:34;;;;;;;18.53;7.73;;;2.10;99.90;;;;;;4807349;29;20053;-88
2022/03/18 01:41:00;;;;;;;14.27;7.00;;;2.20;99.90;;;;;;4794960;29;20046;-88
2022/03/18 01:43:25;;;;;;;13.07;6.77;;;2.10;99.90;;;;;;4799107;29;20049;-88
2022/03/18 01:45:51;;;;;;;16.63;6.20;;;2.10;99.90;;;;;;4811943;29;20157;-87
2022/03/18 01:48:18;;;;;;;17.90;7.57;;;2.10;99.90;;;;;;4790782;29;20058;-87
2022/03/18 01:50:45;;;;;;;21.13;7.73;;;2.10;99.90;;;;;;4824618;29;20110;-87
2022/03/18 01:53:11;;;;;;;12.90;6.93;;;2.10;99.90;;;;;;4795043;29;20033;-87
2022/03/18 01:55:37;;;;;;;16.00;8.00;;;2.10;99.90;;;;;;4810116;29;20042;-88
2022/03/18 01:58:04;;;;;;;13.17;6.03;;;2.10;99.90;;;;;;4791742;29;20483;-88
2022/03/18 02:00:31;;;;;;;18.53;7.07;;;2.10;99.90;;;;;;4817688;29;20050;-88
2022/03/18 02:02:57;;;;;;;16.50;7.53;;;2.10;99.90;;;;;;4795156;29;20069;-87
2022/03/18 02:05:24;;;;;;;13.43;6.90;;;2.20;99.90;;;;;;4806292;29;20052;-88
2022/03/18 02:07:50;;;;;;;16.63;7.57;;;2.10;99.90;;;;;;4806931;29;20403;-88
2022/03/18 02:10:16;;;;;;;21.97;9.03;;;2.20;99.90;;;;;;4793172;29;20056;-88
2022/03/18 02:12:42;;;;;;;19.53;10.00;;;2.20;99.90;;;;;;4842669;29;20110;-87
2022/03/18 02:15:09;;;;;;;17.53;9.53;;;2.30;99.90;;;;;;4819125;29;20081;-88
2022/03/18 02:17:35;;;;;;;18.17;8.40;;;2.40;99.90;;;;;;4792390;29;20046;-88
2022/03/18 02:20:01;;;;;;;16.37;8.10;;;2.50;99.90;;;;;;4811287;29;20094;-87
2022/03/18 02:22:34;;;;;;;17.60;9.37;;;2.60;99.90;;;;;;4810883;29;20380;-87
2022/03/18 02:24:59;;;;;;;21.73;9.53;;;2.60;99.90;;;;;;4811622;29;20043;-87
2022/03/18 02:27:25;;;;;;;24.87;10.03;;;2.70;99.90;;;;;;4794748;29;20293;-87
2022/03/18 02:29:51;;;;;;;16.87;9.00;;;2.60;99.90;;;;;;4810039;29;20049;-88
2022/03/18 02:32:18;;;;;;;15.47;8.70;;;2.70;99.90;;;;;;4809780;29;20109;-87
2022/03/18 02:34:44;;;;;;;18.80;8.47;;;2.70;99.90;;;;;;4800513;29;20076;-87
2022/03/18 02:37:09;;;;;;;18.50;9.30;;;2.70;99.90;;;;;;4794423;29;20492;-87
2022/03/18 02:39:35;;;;;;;21.47;9.17;;;2.70;99.90;;;;;;4811120;29;20034;-87
2022/03/18 02:42:01;;;;;;;21.80;9.23;;;2.80;99.90;;;;;;4825220;29;20470;-88
2022/03/18 02:44:27;;;;;;;21.17;9.07;;;2.80;99.90;;;;;;4803285;29;20124;-88
2022/03/18 02:46:53;;;;;;;19.50;9.17;;;2.90;99.90;;;;;;4810776;29;20061;-86
2022/03/18 02:49:23;;;;;;;20.00;8.40;;;2.90;99.90;;;;;;4824447;29;20587;-89
2022/03/18 02:51:49;;;;;;;22.40;8.67;;;3.00;99.90;;;;;;4795727;29;20121;-87
2022/03/18 02:54:14;;;;;;;15.70;8.40;;;3.10;99.90;;;;;;4799187;29;20137;-88
2022/03/18 02:56:40;;;;;;;19.83;8.10;;;3.10;99.90;;;;;;4806788;29;20042;-87
2022/03/18 02:59:06;;;;;;;16.27;8.67;;;3.10;99.90;;;;;;4809615;29;20050;-87
2022/03/18 03:01:32;;;;;;;18.60;8.77;;;3.10;99.90;;;;;;4782352;29;20109;-88
2022/03/18 03:03:59;;;;;;;15.20;8.67;;;3.10;99.90;;;;;;4824870;29;20050;-88
2022/03/18 03:09:10;;;;;;;12.67;7.43;;;3.10;99.90;;;;;;4821639;29;20046;-88
2022/03/18 03:11:36;;;;;;;20.83;8.70;;;3.20;99.90;;;;;;4812964;29;20102;-87
2022/03/18 03:14:02;;;;;;;16.03;8.20;;;3.10;99.90;;;;;;4827535;29;20124;-87
2022/03/18 03:16:28;;;;;;;22.90;9.20;;;3.10;99.90;;;;;;4811836;29;20046;-88
2022/03/18 03:18:54;;;;;;;15.27;8.33;;;3.10;99.90;;;;;;4812327;29;20107;-87
2022/03/18 03:21:20;;;;;;;17.87;7.60;;;3.10;99.90;;;;;;4797425;29;20049;-87
2022/03/18 03:23:47;;;;;;;19.80;8.73;;;3.10;99.90;;;;;;4808045;29;20056;-88
2022/03/18 03:26:14;;;;;;;18.07;8.70;;;3.10;99.90;;;;;;4810268;29;20046;-88
2022/03/18 03:28:41;;;;;;;16.83;8.33;;;3.10;99.90;;;;;;4813170;29;20538;-88
2022/03/18 03:31:07;;;;;;;21.37;8.73;;;3.10;99.90;;;;;;4826710;29;20699;-87
2022/03/18 03:33:33;;;;;;;15.80;8.57;;;3.10;99.90;;;;;;4808561;29;20040;-87
2022/03/18 03:35:59;;;;;;;17.17;8.20;;;3.10;99.90;;;;;;4822001;29;20041;-87
2022/03/18 03:38:25;;;;;;;19.83;8.87;;;3.00;99.90;;;;;;4825133;29;20046;-87
2022/03/18 03:40:51;;;;;;;17.97;8.20;;;3.10;99.90;;;;;;4812384;29;20050;-88
2022/03/18 03:43:17;;;;;;;19.80;7.37;;;3.00;99.90;;;;;;4806059;29;20042;-88
2022/03/18 03:45:44;;;;;;;15.43;8.33;;;3.10;99.90;;;;;;4811940;29;20517;-87
2022/03/18 03:48:13;;;;;;;17.00;8.00;;;3.10;99.90;;;;;;4826508;29;20141;-87
2022/03/18 03:50:40;;;;;;;16.37;8.13;;;3.10;99.90;;;;;;4811236;29;20498;-87
2022/03/18 03:53:07;;;;;;;18.47;8.20;;;3.10;99.90;;;;;;4822650;29;20053;-87
2022/03/18 03:55:34;;;;;;;16.10;9.27;;;3.10;99.90;;;;;;4804837;29;20038;-88
2022/03/18 03:58:00;;;;;;;17.00;8.17;;;3.10;99.90;;;;;;4797020;29;20054;-87
2022/03/18 04:00:25;;;;;;;15.10;7.73;;;3.10;99.90;;;;;;4808393;29;20098;-88
2022/03/18 04:02:51;;;;;;;12.97;7.77;;;3.00;99.90;;;;;;4796367;29;20083;-88
2022/03/18 04:05:17;;;;;;;16.40;8.30;;;2.90;99.90;;;;;;4809756;29;20041;-88
2022/03/18 04:07:46;;;;;;;15.97;6.73;;;2.90;99.90;;;;;;4795467;29;20050;-87
2022/03/18 04:10:13;;;;;;;13.47;7.13;;;2.80;99.90;;;;;;4812277;29;20125;-88
2022/03/18 04:12:40;;;;;;;13.47;7.97;;;2.80;99.90;;;;;;4796723;29;20080;-88
2022/03/18 04:15:08;;;;;;;18.70;7.40;;;2.70;99.90;;;;;;4807325;29;20371;-88
2022/03/18 04:17:52;;;;;;;14.70;7.70;;;2.70;99.90;;;;;;4812200;29;20034;-87
2022/03/18 04:20:23;;;;;;;16.90;8.17;;;2.50;99.90;;;;;;4820281;29;20049;-87
2022/03/18 04:22:54;;;;;;;15.87;7.90;;;2.50;99.90;;;;;;4811546;29;20053;-87
2022/03/18 04:25:22;;;;;;;13.40;7.65;;;2.50;99.90;;;;;;4811306;29;20046;-87
2022/03/18 04:27:48;;;;;;;13.70;7.83;;;2.50;99.90;;;;;;4802074;29;20064;-87
2022/03/18 04:30:15;;;;;;;14.40;8.00;;;2.50;99.90;;;;;;4807963;29;20487;-87
2022/03/18 04:32:42;;;;;;;16.30;8.30;;;2.50;99.90;;;;;;4807490;29;20137;-87
2022/03/18 04:35:09;;;;;;;13.20;8.37;;;2.40;99.90;;;;;;4810730;29;20038;-87
2022/03/18 04:37:37;;;;;;;19.77;8.90;;;2.30;99.90;;;;;;4799880;29;20461;-87
2022/03/18 04:40:05;;;;;;;14.13;8.17;;;2.30;99.90;;;;;;4810579;29;20050;-87
2022/03/18 04:42:30;;;;;;;11.63;7.83;;;2.30;99.90;;;;;;4785719;29;20066;-87
2022/03/18 04:44:56;;;;;;;15.67;8.17;;;2.20;99.90;;;;;;4795960;29;20066;-87
2022/03/18 04:47:22;;;;;;;18.13;8.40;;;2.20;99.90;;;;;;4810444;29;20144;-87
2022/03/18 04:49:48;;;;;;;14.87;8.50;;;2.10;99.90;;;;;;4791636;29;20106;-88
2022/03/18 04:52:14;;;;;;;14.10;7.73;;;2.00;99.90;;;;;;4810218;29;20050;-87
2022/03/18 04:54:39;;;;;;;14.97;8.33;;;2.10;99.90;;;;;;4822943;29;20044;-87
2022/03/18 04:57:20;;;;;;;16.83;7.90;;;2.00;99.90;;;;;;4788596;29;20042;-88
2022/03/18 04:59:54;;;;;;;12.73;7.90;;;2.00;99.90;;;;;;4810825;29;20038;-87
2022/03/18 05:02:20;;;;;;;11.30;6.97;;;2.00;99.90;;;;;;4810700;29;20052;-87
2022/03/18 05:04:48;;;;;;;14.37;7.40;;;2.00;99.90;;;;;;4810803;29;20050;-87
2022/03/18 05:07:15;;;;;;;15.53;8.07;;;1.90;99.90;;;;;;4807693;29;20129;-88
2022/03/18 05:09:42;;;;;;;13.40;7.50;;;1.90;99.90;;;;;;4826245;29;20089;-87
2022/03/18 05:12:10;;;;;;;12.17;7.83;;;1.90;99.90;;;;;;4810755;29;20125;-88
2022/03/18 05:14:39;;;;;;;21.67;8.13;;;1.90;99.90;;;;;;4806191;29;20039;-87
2022/03/18 05:17:07;;;;;;;15.97;7.90;;;1.80;99.90;;;;;;4821995;29;20502;-87
2022/03/18 05:19:34;;;;;;;14.87;7.50;;;1.80;99.90;;;;;;4812768;29;20076;-87
2022/03/18 05:21:59;;;;;;;18.00;7.77;;;1.70;99.90;;;;;;4835749;29;20386;-88
2022/03/18 05:24:26;;;;;;;11.93;7.03;;;1.80;99.90;;;;;;4825766;29;20378;-87
2022/03/18 05:26:53;;;;;;;15.83;7.40;;;1.80;99.90;;;;;;4811966;29;20132;-88
2022/03/18 05:29:18;;;;;;;12.33;6.93;;;1.70;99.90;;;;;;4795994;29;20916;-88
2022/03/18 05:31:46;;;;;;;12.97;7.23;;;1.80;99.90;;;;;;4803834;29;20050;-88
2022/03/18 05:34:12;;;;;;;16.03;7.97;;;1.80;99.90;;;;;;4804119;29;20053;-88
2022/03/18 05:36:39;;;;;;;13.50;8.07;;;1.80;99.90;;;;;;4812292;29;20326;-88
2022/03/18 05:39:05;;;;;;;15.07;8.03;;;1.80;99.90;;;;;;4791093;29;20508;-88
2022/03/18 05:41:31;;;;;;;13.23;7.80;;;1.80;99.90;;;;;;4809390;29;20086;-88
2022/03/18 05:43:57;;;;;;;16.40;8.07;;;1.80;99.90;;;;;;4805661;29;20402;-88
2022/03/18 05:46:23;;;;;;;16.77;8.20;;;1.80;99.90;;;;;;4822939;29;20102;-88
2022/03/18 05:48:49;;;;;;;20.30;8.80;;;1.90;99.90;;;;;;4800862;29;20862;-88
2022/03/18 05:51:15;;;;;;;16.80;8.50;;;1.80;99.90;;;;;;4786085;29;20049;-88
2022/03/18 05:53:40;;;;;;;15.57;8.30;;;1.80;99.90;;;;;;4795587;29;20045;-88
2022/03/18 05:58:51;;;;;;;16.90;8.47;;;1.70;99.90;;;;;;4799743;29;20046;-88
2022/03/18 06:01:17;;;;;;;14.80;8.83;;;1.70;99.90;;;;;;4807294;29;20042;-88
2022/03/18 06:03:42;;;;;;;16.93;9.37;;;1.70;99.90;;;;;;4819613;29;20185;-88
2022/03/18 06:06:08;;;;;;;16.77;8.73;;;1.70;99.90;;;;;;4794352;29;20041;-87
2022/03/18 06:14:03;;;;;;;14.20;9.10;;;1.80;99.90;;;;;;4816167;29;20290;-88
2022/03/18 06:16:29;;;;;;;21.43;9.10;;;1.80;99.90;;;;;;4804417;29;20294;-87
2022/03/18 06:18:54;;;;;;;17.07;9.80;;;1.90;99.90;;;;;;4810725;29;20807;-88
2022/03/18 06:21:23;;;;;;;17.93;9.83;;;1.90;99.90;;;;;;4812843;29;20045;-88
2022/03/18 06:23:49;;;;;;;13.53;8.63;;;2.00;99.90;;;;;;4806473;29;20045;-88
2022/03/18 06:26:15;;;;;;;16.80;9.40;;;2.00;99.90;;;;;;4809516;29;20041;-88
2022/03/18 06:28:41;;;;;;;12.63;9.10;;;2.00;99.90;;;;;;4809684;29;20053;-88
2022/03/18 06:31:10;;;;;;;15.57;9.27;;;2.00;99.90;;;;;;4824635;29;20046;-89
2022/03/18 06:33:43;;;;;;;21.17;10.20;;;2.00;99.90;;;;;;4809548;29;20402;-87
2022/03/18 06:36:10;;;;;;;15.30;9.37;;;2.00;99.90;;;;;;4824761;29;20045;-88
2022/03/18 06:38:36;;;;;;;14.63;9.40;;;2.10;99.90;;;;;;4794788;29;20089;-88
2022/03/18 06:41:02;;;;;;;15.20;9.53;;;2.20;99.90;;;;;;4794432;29;20112;-88
2022/03/18 06:43:28;;;;;;;20.53;10.47;;;2.20;99.90;;;;;;4813080;29;20097;-88
2022/03/18 06:45:53;;;;;;;18.33;11.07;;;2.20;99.90;;;;;;4810898;29;20053;-88
2022/03/18 06:48:19;;;;;;;17.73;9.97;;;2.30;99.90;;;;;;4812013;29;20094;-89
2022/03/18 06:50:45;;;;;;;20.07;11.30;;;2.40;99.90;;;;;;4812449;29;20046;-88
2022/03/18 06:53:11;;;;;;;20.43;11.77;;;2.40;99.90;;;;;;4812613;29;20046;-88
2022/03/18 06:55:37;;;;;;;20.47;11.80;;;2.50;99.90;;;;;;4812186;29;20407;-88
2022/03/18 06:58:03;;;;;;;19.97;11.23;;;2.60;99.90;;;;;;4813017;29;20405;-88
2022/03/18 07:00:28;;;;;;;23.00;11.57;;;2.60;99.90;;;;;;4827910;29;20045;-88
2022/03/18 07:02:54;;;;;;;24.80;12.47;;;2.70;99.90;;;;;;4827551;29;20129;-85
2022/03/18 07:05:20;;;;;;;19.10;12.73;;;2.80;99.90;;;;;;4825192;29;20073;-85
2022/03/18 07:07:46;;;;;;;21.07;12.97;;;2.90;99.90;;;;;;4812833;29;20787;-85
2022/03/18 07:10:12;;;;;;;23.60;13.37;;;3.00;99.90;;;;;;4823848;29;20482;-85
2022/03/18 07:12:39;;;;;;;20.70;13.60;;;3.10;99.90;;;;;;4812017;29;20042;-85
2022/03/18 07:15:06;;;;;;;24.93;14.53;;;3.20;99.90;;;;;;4822134;29;20047;-85
2022/03/18 07:18:14;;;;;;;25.13;14.80;;;3.40;99.90;;;;;;4807471;29;20038;-85
2022/03/18 07:20:25;;;;;;;27.03;15.87;;;3.50;99.90;;;;;;4821664;29;20045;-85
2022/03/18 07:23:07;;;;;;;26.27;15.37;;;3.60;99.90;;;;;;4817639;29;20054;-85
2022/03/18 07:25:34;;;;;;;;;;;3.80;99.90;;;;;;4804879;29;20390;-85
2022/03/18 07:28:00;;;;;;;53.23;22.90;;;3.90;99.90;;;;;;4823893;29;19974;-85
2022/03/18 07:30:25;;;;;;;39.90;20.50;;;4.00;99.90;;;;;;4806324;29;20073;-85
2022/03/18 07:32:51;;;;;;;37.67;19.33;;;4.10;99.90;;;;;;4827098;29;20098;-85
2022/03/18 07:35:17;;;;;;;33.17;17.53;;;4.20;99.90;;;;;;4820114;29;20038;-85
2022/03/18 07:37:43;;;;;;;36.10;19.20;;;4.40;99.90;;;;;;4788513;29;20049;-85
2022/03/18 07:40:11;;;;;;;38.67;19.77;;;4.50;99.90;;;;;;4801967;29;20490;-85
2022/03/18 07:42:49;;;;;;;32.47;19.43;;;4.60;99.90;;;;;;4811864;29;20038;-85
2022/03/18 07:45:22;;;;;;;31.37;17.00;;;4.80;99.90;;;;;;4811264;29;20615;-85
2022/03/18 07:47:52;;;;;;;28.93;17.00;;;5.00;99.90;;;;;;4812172;29;20062;-85
2022/03/18 07:50:21;;;;;;;24.93;17.73;;;5.20;99.90;;;;;;4798824;29;20054;-86
2022/03/18 07:52:49;;;;;;;27.97;17.77;;;5.30;99.90;;;;;;4813091;29;20414;-85
2022/03/18 07:55:15;;;;;;;30.33;17.90;;;5.50;99.90;;;;;;4794221;29;20099;-85
2022/03/18 07:57:41;;;;;;;32.40;18.50;;;5.60;99.90;;;;;;4780524;29;20047;-85
2022/03/18 08:00:08;;;;;;;32.57;18.57;;;5.80;99.90;;;;;;4823676;29;20116;-85
2022/03/18 08:02:34;;;;;;;26.27;17.40;;;5.90;99.90;;;;;;4797983;29;20042;-86
2022/03/18 08:05:06;;;;;;;29.23;16.83;;;6.10;99.90;;;;;;4825428;29;20058;-85
2022/03/18 08:07:33;;;;;;;30.48;16.70;;;6.30;99.90;;;;;;4812129;29;20045;-85
2022/03/18 08:09:59;;;;;;;27.40;16.57;;;6.50;99.90;;;;;;4828079;29;20494;-85
2022/03/18 08:12:28;;;;;;;26.20;15.07;;;6.60;99.90;;;;;;4812205;29;20053;-84
2022/03/18 08:14:58;;;;;;;29.03;15.93;;;6.80;99.90;;;;;;4824428;29;20228;-84
2022/03/18 08:17:31;;;;;;;29.50;16.80;;;7.00;99.90;;;;;;4825323;29;20069;-84
2022/03/18 08:19:57;;;;;;;29.60;15.57;;;7.10;99.90;;;;;;4809572;29;20057;-84
2022/03/18 08:22:25;;;;;;;30.00;16.67;;;7.30;99.90;;;;;;4811366;29;20046;-84
2022/03/18 08:24:52;;;;;;;32.13;16.20;;;7.40;99.90;;;;;;4826113;29;20057;-84
2022/03/18 08:27:19;;;;;;;22.73;15.00;;;7.60;99.90;;;;;;4823366;29;20064;-84
2022/03/18 08:29:57;;;;;;;25.20;15.40;;;7.70;99.90;;;;;;4815979;29;20199;-83
2022/03/18 08:32:31;;;;;;;34.37;16.20;;;7.80;99.90;;;;;;4824750;29;20046;-84
2022/03/18 08:35:10;;;;;;;32.77;16.33;;;8.10;99.90;;;;;;4804914;29;20050;-84
2022/03/18 08:38:15;;;;;;;27.37;14.63;;;8.20;99.90;;;;;;4842836;29;20030;-84
2022/03/18 08:40:41;;;;;;;24.60;13.57;;;8.30;99.90;;;;;;4812954;29;20072;-84
2022/03/18 08:43:09;;;;;;;25.67;14.67;;;8.40;99.90;;;;;;4824305;29;20042;-84
2022/03/18 08:45:36;;;;;;;23.00;14.70;;;8.50;99.90;;;;;;4827545;29;20057;-83
2022/03/18 08:48:04;;;;;;;34.47;15.13;;;8.50;99.90;;;;;;4823142;29;20054;-85
2022/03/18 08:50:31;;;;;;;26.00;14.70;;;8.60;99.90;;;;;;4838482;29;20188;-83
2022/03/18 08:52:57;;;;;;;25.30;13.07;;;8.70;99.90;;;;;;4822976;29;20071;-87
2022/03/18 08:55:24;;;;;;;24.13;14.10;;;8.70;99.90;;;;;;4809479;29;20052;-87
2022/03/18 08:57:53;;;;;;;30.80;14.27;;;8.80;99.90;;;;;;4808310;29;20053;-85
2022/03/18 09:00:19;;;;;;;24.70;14.37;;;8.80;99.90;;;;;;4825772;29;20050;-86
2022/03/18 09:02:55;;;;;;;30.73;14.67;;;8.90;99.90;;;;;;4816751;29;20052;-84
2022/03/18 09:05:22;;;;;;;24.20;14.07;;;9.00;99.90;;;;;;4795562;29;20545;-88
2022/03/18 09:07:54;;;;;;;26.33;15.00;;;9.10;99.90;;;;;;4824269;29;20056;-86
2022/03/18 09:10:20;;;;;;;24.23;14.40;;;9.20;99.90;;;;;;4826689;29;20050;-86
2022/03/18 09:13:00;;;;;;;24.43;13.17;;;9.30;99.90;;;;;;4823446;29;20043;-86
2022/03/18 09:15:27;;;;;;;20.80;13.40;;;9.40;99.90;;;;;;4825383;29;20073;-86
2022/03/18 09:17:56;;;;;;;29.57;14.57;;;9.50;99.90;;;;;;4808273;29;20510;-84
2022/03/18 09:20:22;;;;;;;22.27;12.63;;;9.60;99.90;;;;;;4774286;29;20447;-88
2022/03/18 09:22:48;;;;;;;23.27;12.97;;;9.70;99.90;;;;;;4821123;29;20053;-86
2022/03/18 09:25:26;;;;;;;24.57;13.40;;;9.80;99.90;;;;;;4820971;29;20046;-87
2022/03/18 09:27:58;;;;;;;20.57;13.53;;;9.80;99.90;;;;;;4825843;29;20077;-87
2022/03/18 09:30:24;;;;;;;24.73;14.27;;;9.90;99.90;;;;;;4819846;29;20047;-87
2022/03/18 09:32:55;;;;;;;25.93;15.40;;;10.00;99.90;;;;;;4822186;29;20113;-85
2022/03/18 09:35:30;;;;;;;21.17;12.97;;;10.10;99.90;;;;;;4792941;29;20804;-85
2022/03/18 09:38:00;;;;;;;20.93;11.77;;;10.20;99.90;;;;;;4807041;29;20094;-84
2022/03/18 09:40:25;;;;;;;20.73;13.30;;;10.40;99.90;;;;;;4820704;29;20080;-85
2022/03/18 09:42:58;;;;;;;25.77;13.20;;;10.40;99.90;;;;;;4821048;29;20132;-86
2022/03/18 09:45:33;;;;;;;22.73;12.27;;;10.50;99.90;;;;;;4820056;29;20046;-84
2022/03/18 09:48:01;;;;;;;22.57;13.33;;;10.50;99.90;;;;;;4815124;29;20061;-85
2022/03/18 09:50:28;;;;;;;24.60;13.37;;;10.60;99.90;;;;;;4822753;29;20045;-89
2022/03/18 09:52:54;;;;;;;28.40;14.67;;;10.70;99.90;;;;;;4822875;29;20472;-86
2022/03/18 09:55:38;;;;;;;20.83;14.07;;;10.70;99.90;;;;;;4808258;29;20065;-86
2022/03/18 09:58:07;;;;;;;25.03;14.70;;;10.90;99.90;;;;;;4823470;29;20046;-86
2022/03/18 10:00:33;;;;;;;20.27;12.50;;;11.00;99.90;;;;;;4808169;29;20042;-84
2022/03/18 10:03:21;;;;;;;25.00;14.00;;;11.10;99.90;;;;;;4823242;29;20064;-83
2022/03/18 10:05:59;;;;;;;28.67;13.37;;;11.20;99.90;;;;;;4807817;29;20057;-84
2022/03/18 10:08:43;;;;;;;24.40;13.27;;;11.30;99.90;;;;;;4823389;29;20042;-84
2022/03/18 10:11:23;;;;;;;21.73;12.97;;;11.50;99.90;;;;;;4808042;29;20053;-84
2022/03/18 10:14:01;;;;;;;20.13;12.63;;;11.50;99.90;;;;;;4808018;29;20114;-84
2022/03/18 10:17:13;;;;;;;21.13;12.67;;;11.60;99.90;;;;;;4820874;29;20050;-85
2022/03/18 10:19:45;;;;;;;25.07;13.67;;;11.60;99.90;;;;;;4806176;29;20046;-84
2022/03/18 10:22:17;;;;;;;;;;;11.60;99.90;;;;;;4808059;29;20056;-85
2022/03/18 10:24:43;;;;;;;27.52;13.27;;;11.60;99.90;;;;;;4822821;29;20008;-85
2022/03/18 10:27:48;;;;;;;23.73;14.13;;;11.60;99.90;;;;;;4838004;29;20128;-86
2022/03/18 10:30:22;;;;;;;25.70;12.60;;;11.60;99.90;;;;;;4815593;29;20051;-86
2022/03/18 10:32:49;;;;;;;25.77;14.43;;;11.70;99.90;;;;;;4818391;29;20116;-84
2022/03/18 10:38:36;;;;;;;26.07;14.63;;;11.90;99.90;;;;;;4839346;29;20045;-85
2022/03/18 10:41:23;;;;;;;21.43;14.37;;;12.10;99.90;;;;;;4841988;29;20095;-85
2022/03/18 10:44:17;;;;;;;26.87;13.83;;;12.20;99.90;;;;;;4809883;29;20136;-86
2022/03/18 10:46:43;;;;;;;24.30;14.37;;;12.30;99.90;;;;;;4807930;29;20396;-86
2022/03/18 10:49:13;;;;;;;20.37;12.70;;;12.40;99.90;;;;;;4807020;29;20751;-85
2022/03/18 10:52:24;;;;;;;23.43;11.87;;;12.50;99.90;;;;;;4825102;29;20507;-86
2022/03/18 10:54:51;;;;;;;20.00;10.90;;;12.60;99.90;;;;;;4826034;29;20125;-86
2022/03/18 10:57:17;;;;;;;22.03;12.20;;;12.70;99.90;;;;;;4816367;29;20397;-86
2022/03/18 10:59:43;;;;;;;20.70;12.47;;;12.70;99.90;;;;;;4802876;29;20175;-87
2022/03/18 11:02:14;;;;;;;22.50;12.90;;;12.70;99.90;;;;;;4838516;29;20076;-88
2022/03/18 11:04:41;;;;;;;21.02;12.90;;;12.80;99.90;;;;;;4825190;29;20106;-87
2022/03/18 11:07:34;;;;;;;18.20;11.47;;;13.00;99.90;;;;;;4812725;29;20060;-87
2022/03/18 11:13:03;;;;;;;21.63;11.97;;;13.20;99.90;;;;;;4787317;29;20051;-86
2022/03/18 11:15:33;;;;;;;26.30;12.17;;;13.30;99.90;;;;;;4788078;29;20058;-87
2022/03/18 11:18:25;;;;;;;23.33;11.07;;;13.40;99.90;;;;;;4772961;29;20050;-87
2022/03/18 11:24:22;;;;;;;19.60;10.38;;;13.40;99.90;;;;;;4800352;29;20096;-87
2022/03/18 11:26:50;;;;;;;33.43;11.47;;;13.50;99.90;;;;;;4787338;29;20078;-87
2022/03/18 11:29:24;;;;;;;17.83;11.53;;;13.60;99.90;;;;;;4790672;29;20054;-87
2022/03/18 11:32:29;;;;;;;21.77;10.93;;;13.60;99.90;;;;;;4790664;29;20058;-87
2022/03/18 11:35:10;;;;;;;17.90;11.13;;;13.50;99.90;;;;;;4754375;30;20066;-88
2022/03/18 11:37:38;;;;;;;21.53;11.03;;;13.60;99.90;;;;;;4786911;29;20388;-86
2022/03/18 11:40:19;;;;;;;18.00;9.03;;;13.60;99.90;;;;;;4787408;29;20053;-86
2022/03/18 11:42:49;;;;;;;17.03;9.83;;;13.80;99.90;;;;;;4820439;29;20105;-87
2022/03/18 11:49:06;;;;;;;19.43;9.77;;;14.00;99.90;;;;;;4801137;29;20065;-86
2022/03/18 11:51:44;;;;;;;18.97;10.33;;;14.10;99.90;;;;;;4808489;29;20602;-87
2022/03/18 11:54:25;;;;;;;15.77;10.37;;;14.20;99.90;;;;;;4808427;29;20118;-85
2022/03/18 11:56:53;;;;;;;20.43;9.90;;;14.20;99.90;;;;;;4818311;29;20404;-87
2022/03/18 11:59:25;;;;;;;16.87;10.70;;;14.30;99.90;;;;;;4785941;29;20560;-86
2022/03/18 12:02:00;;;;;;;16.90;9.48;;;14.30;99.90;;;;;;4808399;29;20072;-87
2022/03/18 12:04:38;;;;;;;19.67;9.90;;;14.30;99.90;;;;;;4807782;29;20617;-87
2022/03/18 12:07:32;;;;;;;20.83;9.63;;;14.20;99.90;;;;;;4793154;29;20042;-91
2022/03/18 12:10:07;;;;;;;21.10;9.07;;;14.20;99.90;;;;;;4793311;29;20038;-87
2022/03/18 12:12:40;;;;;;;18.27;9.20;;;14.10;99.90;;;;;;4807996;29;20086;-87
2022/03/18 12:15:22;;;;;;;14.43;8.50;;;14.10;99.90;;;;;;4808091;29;20054;-86
2022/03/18 12:17:53;;;;;;;16.23;9.32;;;14.30;99.90;;;;;;4796696;29;20129;-86
2022/03/18 12:20:30;;;;;;;14.23;5.93;;;14.40;99.90;;;;;;4807919;29;20058;-86
2022/03/18 12:23:07;;;;;;;13.30;6.97;;;14.50;99.90;;;;;;4821639;29;20045;-86
2022/03/18 12:25:36;;;;;;;13.20;5.87;;;14.50;99.90;;;;;;4826669;29;20120;-87
2022/03/18 12:28:03;;;;;;;11.23;6.43;;;14.50;99.90;;;;;;4826977;29;20490;-85
2022/03/18 12:30:30;;;;;;;13.67;6.30;;;14.40;99.90;;;;;;4811665;29;20178;-86
2022/03/18 12:33:06;;;;;;;10.70;6.00;;;14.20;99.90;;;;;;4826396;29;20050;-86
2022/03/18 12:35:33;;;;;;;12.77;7.10;;;14.30;99.90;;;;;;4809184;29;20046;-86
2022/03/18 12:38:21;;;;;;;10.60;5.87;;;14.40;99.90;;;;;;4822392;29;20052;-88
2022/03/18 12:40:56;;;;;;;11.87;5.30;;;14.40;99.90;;;;;;4823422;29;20500;-89
2022/03/18 12:43:24;;;;;;;15.60;6.47;;;14.30;99.90;;;;;;4808463;29;20046;-87
2022/03/18 12:45:50;;;;;;;11.30;5.60;;;14.30;99.90;;;;;;4826620;29;20118;-88
2022/03/18 12:48:18;;;;;;;13.80;5.93;;;14.40;99.90;;;;;;4821411;29;20058;-85
2022/03/18 12:51:07;;;;;;;12.27;6.30;;;14.50;99.90;;;;;;4799773;29;20114;-87
2022/03/18 12:53:35;;;;;;;13.37;7.17;;;14.60;99.90;;;;;;4816662;29;20121;-86
2022/03/18 12:56:03;;;;;;;13.87;7.23;;;14.70;99.90;;;;;;4812209;29;20128;-87
2022/03/18 12:58:38;;;;;;;11.33;6.67;;;14.80;99.90;;;;;;4820562;29;20479;-87
2022/03/18 13:01:11;;;;;;;15.00;7.43;;;15.00;99.90;;;;;;4808296;29;20051;-89
2022/03/18 13:03:51;;;;;;;13.45;7.30;;;14.80;99.90;;;;;;4810812;29;20103;-87
2022/03/18 13:06:22;;;;;;;13.13;7.13;;;14.70;99.90;;;;;;4820836;29;20478;-87
2022/03/18 13:09:09;;;;;;;16.90;7.40;;;14.50;99.90;;;;;;4808393;29;20058;-89
2022/03/18 13:11:35;;;;;;;15.20;6.88;;;14.40;99.90;;;;;;4808091;29;20055;-88
2022/03/18 13:14:25;;;;;;;14.17;7.37;;;14.30;99.90;;;;;;4827870;29;20375;-86
2022/03/18 13:16:51;;;;;;;16.33;7.65;;;14.40;99.90;;;;;;4811637;29;20049;-85
2022/03/18 13:19:18;;;;;;;17.67;8.25;;;14.40;99.90;;;;;;4819783;29;20104;-87